createdAt,value
2018-07-24T00:04:00.000Z,21.0
2018-07-24T00:09:00.000Z,20.9
2018-07-24T00:14:00.000Z,20.9
2018-07-24T00:19:00.000Z,20.9
2018-07-24T00:24:00.000Z,20.8
2018-07-24T00:29:00.000Z,20.8
2018-07-24T00:34:00.000Z,20.8
2018-07-24T00:39:00.000Z,20.7
2018-07-24T00:44:00.000Z,20.7
2018-07-24T00:49:00.000Z,20.7
2018-07-24T00:54:00.000Z,20.6
2018-07-24T00:59:00.000Z,20.6
2018-07-24T01:04:00.000Z,20.6
2018-07-24T01:09:00.000Z,20.6
2018-07-24T01:14:00.000Z,20.5
2018-07-24T01:19:00.000Z,20.5
2018-07-24T01:24:00.000Z,20.5
2018-07-24T01:29:00.000Z,20.5
2018-07-24T01:34:00.000Z,20.5
2018-07-24T01:39:00.000Z,20.4
2018-07-24T01:44:00.000Z,20.4
2018-07-24T01:49:00.000Z,20.4
2018-07-24T01:54:00.000Z,20.4
2018-07-24T01:59:00.000Z,20.4
2018-07-24T02:04:00.000Z,20.3
2018-07-24T02:09:00.000Z,20.3
2018-07-24T02:14:00.000Z,20.3
2018-07-24T02:19:00.000Z,20.3
2018-07-24T02:24:00.000Z,20.2
2018-07-24T02:29:00.000Z,20.2
2018-07-24T02:34:00.000Z,20.2
2018-07-24T02:39:00.000Z,20.1
2018-07-24T02:44:00.000Z,20.1
2018-07-24T02:49:00.000Z,20.1
2018-07-24T02:54:00.000Z,20.1
2018-07-24T02:59:00.000Z,20.0
2018-07-24T03:04:00.000Z,20.0
2018-07-24T03:09:00.000Z,20.0
2018-07-24T03:14:00.000Z,20.0
2018-07-24T03:19:00.000Z,20.0
2018-07-24T03:24:00.000Z,19.9
2018-07-24T03:29:00.000Z,19.9
2018-07-24T03:34:00.000Z,19.9
2018-07-24T03:39:00.000Z,19.9
2018-07-24T03:44:00.000Z,19.9
2018-07-24T03:49:00.000Z,20.0
2018-07-24T03:54:00.000Z,20.0
2018-07-24T03:59:00.000Z,20.0
2018-07-24T04:04:00.000Z,20.1
2018-07-24T04:09:00.000Z,20.1
2018-07-24T04:14:00.000Z,20.2
2018-07-24T04:19:00.000Z,20.3
2018-07-24T04:24:00.000Z,20.3
2018-07-24T04:29:00.000Z,20.4
2018-07-24T04:34:00.000Z,20.5
2018-07-24T04:39:00.000Z,20.5
2018-07-24T04:44:00.000Z,20.6
2018-07-24T04:50:00.000Z,20.7
2018-07-24T04:55:00.000Z,20.7
2018-07-24T05:00:00.000Z,20.8
2018-07-24T05:05:00.000Z,20.8
2018-07-24T05:10:00.000Z,20.9
2018-07-24T05:15:00.000Z,20.9
2018-07-24T05:20:00.000Z,21.0
2018-07-24T05:25:00.000Z,21.1
2018-07-24T05:30:00.000Z,21.1
2018-07-24T05:35:00.000Z,21.2
2018-07-24T05:40:00.000Z,21.3
2018-07-24T05:45:00.000Z,21.5
2018-07-24T05:50:00.000Z,21.6
2018-07-24T05:55:00.000Z,21.7
2018-07-24T06:00:00.000Z,21.8
2018-07-24T06:05:00.000Z,22.0
2018-07-24T06:10:00.000Z,22.0
2018-07-24T06:15:00.000Z,22.1
2018-07-24T06:20:00.000Z,22.3
2018-07-24T06:25:00.000Z,22.4
2018-07-24T06:30:00.000Z,22.6
2018-07-24T06:35:00.000Z,22.7
2018-07-24T06:40:00.000Z,22.9
2018-07-24T06:45:00.000Z,23.0
2018-07-24T06:50:00.000Z,23.1
2018-07-24T06:55:00.000Z,23.2
2018-07-24T07:00:00.000Z,23.4
2018-07-24T07:05:00.000Z,23.5
2018-07-24T07:10:00.000Z,23.6
2018-07-24T07:15:00.000Z,23.8
2018-07-24T07:20:00.000Z,24.1
2018-07-24T07:25:00.000Z,24.5
2018-07-24T07:30:00.000Z,25.0
2018-07-24T07:35:00.000Z,25.5
2018-07-24T07:40:00.000Z,26.0
2018-07-24T07:45:00.000Z,26.4
2018-07-24T07:50:00.000Z,26.9
2018-07-24T07:55:00.000Z,27.4
2018-07-24T08:00:00.000Z,28.0
2018-07-24T08:05:00.000Z,28.3
2018-07-24T08:10:00.000Z,28.3
2018-07-24T08:15:00.000Z,28.5
2018-07-24T08:20:00.000Z,28.9
2018-07-24T08:25:00.000Z,29.1
2018-07-24T08:30:00.000Z,29.3
2018-07-24T08:35:00.000Z,29.6
2018-07-24T08:40:00.000Z,29.8
2018-07-24T08:45:00.000Z,30.0
2018-07-24T08:50:00.000Z,30.1
2018-07-24T08:55:00.000Z,30.3
2018-07-24T09:00:00.000Z,30.6
2018-07-24T09:05:00.000Z,30.8
2018-07-24T09:10:00.000Z,30.7
2018-07-24T09:15:00.000Z,30.6
2018-07-24T09:20:00.000Z,30.7
2018-07-24T09:25:00.000Z,30.9
2018-07-24T09:30:00.000Z,31.2
2018-07-24T09:35:00.000Z,31.5
2018-07-24T09:40:00.000Z,31.5
2018-07-24T09:45:00.000Z,31.6
2018-07-24T09:50:00.000Z,31.6
2018-07-24T09:55:00.000Z,31.8
2018-07-24T10:00:00.000Z,32.0
2018-07-24T10:05:00.000Z,31.8
2018-07-24T10:10:00.000Z,31.9
2018-07-24T10:15:00.000Z,32.0
2018-07-24T10:20:00.000Z,32.3
2018-07-24T10:25:00.000Z,32.4
2018-07-24T10:30:00.000Z,32.6
2018-07-24T10:35:00.000Z,32.7
2018-07-24T10:40:00.000Z,32.9
2018-07-24T10:46:00.000Z,32.5
2018-07-24T10:51:00.000Z,31.6
2018-07-24T10:56:00.000Z,31.2
2018-07-24T11:01:00.000Z,31.1
2018-07-24T11:06:00.000Z,30.6
2018-07-24T11:11:00.000Z,29.9
2018-07-24T11:16:00.000Z,29.7
2018-07-24T11:21:00.000Z,29.3
2018-07-24T11:26:00.000Z,28.8
2018-07-24T11:31:00.000Z,28.5
2018-07-24T11:36:00.000Z,28.6
2018-07-24T11:41:00.000Z,28.9
2018-07-24T11:46:00.000Z,29.2
2018-07-24T11:51:00.000Z,29.5
2018-07-24T11:56:00.000Z,29.7
2018-07-24T12:01:00.000Z,29.9
2018-07-24T12:06:00.000Z,30.2
2018-07-24T12:11:00.000Z,30.3
2018-07-24T12:16:00.000Z,30.4
2018-07-24T12:21:00.000Z,30.1
2018-07-24T12:26:00.000Z,30.1
2018-07-24T12:31:00.000Z,30.4
2018-07-24T12:36:00.000Z,30.7
2018-07-24T12:41:00.000Z,30.9
2018-07-24T12:46:00.000Z,31.0
2018-07-24T12:51:00.000Z,31.0
2018-07-24T12:56:00.000Z,31.3
2018-07-24T13:01:00.000Z,31.6
2018-07-24T13:06:00.000Z,31.8
2018-07-24T13:11:00.000Z,31.7
2018-07-24T13:16:00.000Z,31.6
2018-07-24T13:21:00.000Z,31.3
2018-07-24T13:26:00.000Z,31.3
2018-07-24T13:31:00.000Z,31.5
2018-07-24T13:36:00.000Z,31.6
2018-07-24T13:41:00.000Z,31.7
2018-07-24T13:46:00.000Z,31.9
2018-07-24T13:51:00.000Z,32.0
2018-07-24T13:56:00.000Z,31.7
2018-07-24T14:01:00.000Z,31.6
2018-07-24T14:06:00.000Z,31.3
2018-07-24T14:11:00.000Z,31.1
2018-07-24T14:16:00.000Z,31.2
2018-07-24T14:21:00.000Z,31.3
2018-07-24T14:26:00.000Z,31.7
2018-07-24T14:31:00.000Z,31.6
2018-07-24T14:36:00.000Z,31.4
2018-07-24T14:41:00.000Z,31.6
2018-07-24T14:46:00.000Z,31.5
2018-07-24T14:51:00.000Z,31.4
2018-07-24T14:56:00.000Z,31.4
2018-07-24T15:01:00.000Z,31.4
2018-07-24T15:06:00.000Z,31.3
2018-07-24T15:11:00.000Z,31.3
2018-07-24T15:16:00.000Z,31.4
2018-07-24T15:21:00.000Z,31.3
2018-07-24T15:26:00.000Z,31.1
2018-07-24T15:31:00.000Z,31.0
2018-07-24T15:36:00.000Z,31.0
2018-07-24T15:41:00.000Z,30.9
2018-07-24T15:46:00.000Z,30.8
2018-07-24T15:51:00.000Z,30.8
2018-07-24T15:56:00.000Z,30.7
2018-07-24T16:01:00.000Z,30.6
2018-07-24T16:06:00.000Z,30.6
2018-07-24T16:11:00.000Z,30.4
2018-07-24T16:16:00.000Z,30.3
2018-07-24T16:21:00.000Z,30.1
2018-07-24T16:26:00.000Z,30.0
2018-07-24T16:31:00.000Z,29.9
2018-07-24T16:36:00.000Z,29.7
2018-07-24T16:42:00.000Z,29.7
2018-07-24T16:47:00.000Z,29.6
2018-07-24T16:52:00.000Z,29.6
2018-07-24T16:57:00.000Z,29.5
2018-07-24T17:02:00.000Z,29.4
2018-07-24T17:07:00.000Z,29.3
2018-07-24T17:12:00.000Z,29.3
2018-07-24T17:17:00.000Z,29.2
2018-07-24T17:22:00.000Z,29.1
2018-07-24T17:27:00.000Z,28.9
2018-07-24T17:32:00.000Z,28.8
2018-07-24T17:37:00.000Z,28.6
2018-07-24T17:42:00.000Z,28.5
2018-07-24T17:47:00.000Z,28.4
2018-07-24T17:52:00.000Z,28.3
2018-07-24T17:57:00.000Z,28.2
2018-07-24T18:02:00.000Z,28.1
2018-07-24T18:07:00.000Z,28.0
2018-07-24T18:12:00.000Z,27.9
2018-07-24T18:17:00.000Z,27.8
2018-07-24T18:22:00.000Z,27.6
2018-07-24T18:27:00.000Z,27.5
2018-07-24T18:32:00.000Z,27.4
2018-07-24T18:37:00.000Z,27.3
2018-07-24T18:42:00.000Z,27.2
2018-07-24T18:47:00.000Z,27.1
2018-07-24T18:52:00.000Z,27.0
2018-07-24T18:57:00.000Z,26.9
2018-07-24T19:02:00.000Z,26.8
2018-07-24T19:07:00.000Z,26.7
2018-07-24T19:12:00.000Z,26.7
2018-07-24T19:17:00.000Z,26.6
2018-07-24T19:22:00.000Z,26.5
2018-07-24T19:27:00.000Z,26.4
2018-07-24T19:32:00.000Z,26.4
2018-07-24T19:37:00.000Z,26.3
2018-07-24T19:42:00.000Z,26.3
2018-07-24T19:47:00.000Z,26.3
2018-07-24T19:52:00.000Z,26.2
2018-07-24T19:57:00.000Z,26.2
2018-07-24T20:02:00.000Z,26.2
2018-07-24T20:07:00.000Z,26.1
2018-07-24T20:12:00.000Z,26.1
2018-07-24T20:17:00.000Z,26.1
2018-07-24T20:22:00.000Z,26.1
2018-07-24T20:27:00.000Z,26.1
2018-07-24T20:32:00.000Z,26.0
2018-07-24T20:37:00.000Z,26.0
2018-07-24T20:42:00.000Z,26.0
2018-07-24T20:47:00.000Z,26.0
2018-07-24T20:52:00.000Z,26.0
2018-07-24T20:57:00.000Z,26.0
2018-07-24T21:02:00.000Z,26.0
2018-07-24T21:07:00.000Z,26.0
2018-07-24T21:12:00.000Z,26.0
2018-07-24T21:17:00.000Z,26.0
2018-07-24T21:22:00.000Z,26.0
2018-07-24T21:27:00.000Z,26.0
2018-07-24T21:32:00.000Z,25.9
2018-07-24T21:37:00.000Z,25.9
2018-07-24T21:42:00.000Z,25.8
2018-07-24T21:47:00.000Z,25.7
2018-07-24T21:52:00.000Z,25.6
2018-07-24T21:57:00.000Z,25.6
2018-07-24T22:02:00.000Z,25.5
2018-07-24T22:07:00.000Z,25.4
2018-07-24T22:12:00.000Z,25.3
2018-07-24T22:17:00.000Z,25.2
2018-07-24T22:22:00.000Z,25.2
2018-07-24T22:27:00.000Z,25.1
2018-07-24T22:32:00.000Z,25.0
2018-07-24T22:37:00.000Z,25.0
2018-07-24T22:43:00.000Z,24.9
2018-07-24T22:48:00.000Z,24.8
2018-07-24T22:53:00.000Z,24.8
2018-07-24T22:58:00.000Z,24.7
2018-07-24T23:03:00.000Z,24.7
2018-07-24T23:08:00.000Z,24.6
2018-07-24T23:13:00.000Z,24.5
2018-07-24T23:18:00.000Z,24.5
2018-07-24T23:23:00.000Z,24.4
2018-07-24T23:28:00.000Z,24.3
2018-07-24T23:33:00.000Z,24.3
2018-07-24T23:38:00.000Z,24.2
2018-07-24T23:43:00.000Z,24.1
2018-07-24T23:48:00.000Z,24.1
2018-07-24T23:53:00.000Z,24.0
2018-07-24T23:58:00.000Z,24.0
